createdAt,value
2024-01-05T00:00:34.564Z,99.99
2024-01-05T00:01:34.432Z,99.99
2024-01-05T00:02:34.394Z,99.99
2024-01-05T00:03:34.422Z,99.99
2024-01-05T00:04:34.428Z,99.99
2024-01-05T00:05:34.406Z,99.99
2024-01-05T00:06:34.362Z,99.99
2024-01-05T00:07:34.311Z,99.99
2024-01-05T00:08:34.300Z,99.99
2024-01-05T00:09:34.320Z,99.99
2024-01-05T00:10:34.287Z,99.99
2024-01-05T00:11:34.248Z,99.99
2024-01-05T00:12:34.322Z,99.99
2024-01-05T00:13:34.259Z,99.99
2024-01-05T00:14:34.223Z,99.99
2024-01-05T00:15:34.475Z,99.99
2024-01-05T00:16:34.194Z,99.99
2024-01-05T00:17:34.212Z,99.99
2024-01-05T00:18:34.363Z,99.99
2024-01-05T00:19:34.490Z,99.99
2024-01-05T00:20:34.144Z,99.99
2024-01-05T00:21:34.232Z,99.99
2024-01-05T00:22:34.123Z,99.99
2024-01-05T00:23:34.115Z,99.99
2024-01-05T00:24:34.280Z,99.99
2024-01-05T00:25:34.091Z,99.99
2024-01-05T00:26:34.060Z,99.99
2024-01-05T00:27:34.139Z,99.99
2024-01-05T00:28:34.049Z,99.99
2024-01-05T00:29:34.055Z,99.99
2024-01-05T00:30:34.118Z,99.99
2024-01-05T00:31:34.231Z,99.99
2024-01-05T00:32:34.127Z,99.99
2024-01-05T00:33:34.059Z,99.99
2024-01-05T00:34:34.157Z,99.99
2024-01-05T00:35:33.946Z,99.99
2024-01-05T00:36:34.081Z,99.99
2024-01-05T00:37:33.921Z,99.99
2024-01-05T00:38:33.914Z,99.99
2024-01-05T00:39:33.975Z,99.99
2024-01-05T00:40:33.903Z,99.99
2024-01-05T00:41:33.871Z,99.99
2024-01-05T00:42:34.012Z,99.99
2024-01-05T00:43:33.862Z,99.99
2024-01-05T00:44:33.835Z,99.99
2024-01-05T00:45:34.048Z,99.99
2024-01-05T00:46:33.832Z,99.99
2024-01-05T00:47:33.811Z,99.99
2024-01-05T00:48:33.856Z,99.99
2024-01-05T00:49:34.062Z,99.99
2024-01-05T00:50:33.775Z,99.99
2024-01-05T00:51:33.841Z,99.99
2024-01-05T00:52:33.742Z,99.99
2024-01-05T00:53:33.708Z,99.99
2024-01-05T00:54:33.823Z,99.99
2024-01-05T00:55:33.691Z,99.99
2024-01-05T00:56:33.716Z,99.99
2024-01-05T00:57:33.778Z,99.99
2024-01-05T00:58:33.686Z,99.99
2024-01-05T00:59:33.657Z,99.99
2024-01-05T01:00:33.772Z,99.99
2024-01-05T01:01:33.647Z,99.99
2024-01-05T01:02:33.605Z,99.99
2024-01-05T01:03:33.701Z,99.99
2024-01-05T01:04:33.711Z,99.99
2024-01-05T01:05:33.611Z,99.99
2024-01-05T01:06:33.637Z,99.99
2024-01-05T01:07:33.550Z,99.99
2024-01-05T01:08:33.544Z,99.99
2024-01-05T01:09:33.578Z,99.99
2024-01-05T01:10:33.522Z,99.99
2024-01-05T01:11:33.500Z,99.99
2024-01-05T01:12:33.546Z,99.99
2024-01-05T01:13:33.456Z,99.99
2024-01-05T01:14:33.464Z,99.99
2024-01-05T01:15:33.505Z,99.99
2024-01-05T01:16:33.428Z,99.99
2024-01-05T01:17:33.540Z,99.99
2024-01-05T01:18:33.465Z,99.99
2024-01-05T01:19:33.520Z,99.99
2024-01-05T01:20:33.387Z,99.99
2024-01-05T01:21:33.436Z,99.99
2024-01-05T01:22:33.359Z,99.99
2024-01-05T01:23:33.353Z,99.99
2024-01-05T01:24:33.396Z,99.99
2024-01-05T01:25:33.363Z,99.99
2024-01-05T01:26:33.311Z,99.99
2024-01-05T01:27:33.448Z,99.99
2024-01-05T01:28:33.268Z,99.99
2024-01-05T01:29:33.249Z,99.99
2024-01-05T01:30:33.331Z,99.99
2024-01-05T01:31:33.311Z,99.99
2024-01-05T01:32:33.231Z,99.99
2024-01-05T01:33:33.514Z,99.99
2024-01-05T01:34:33.260Z,99.99
2024-01-05T01:35:33.210Z,99.99
2024-01-05T01:36:33.308Z,99.99
2024-01-05T01:37:33.154Z,99.99
2024-01-05T01:38:33.147Z,99.99
2024-01-05T01:39:33.209Z,99.99
2024-01-05T01:40:33.134Z,99.99
2024-01-05T01:41:33.125Z,99.99
2024-01-05T01:42:33.270Z,99.99
2024-01-05T01:43:33.084Z,99.99
2024-01-05T01:44:33.060Z,99.99
2024-01-05T01:45:33.177Z,99.99
2024-01-05T01:46:33.028Z,99.99
2024-01-05T01:47:33.043Z,99.99
2024-01-05T01:48:33.116Z,99.99
2024-01-05T01:49:33.152Z,99.99
2024-01-05T01:50:32.987Z,99.99
2024-01-05T01:51:33.128Z,99.99
2024-01-05T01:52:32.955Z,99.99
2024-01-05T01:53:32.941Z,99.99
2024-01-05T01:54:34.058Z,99.99
2024-01-05T01:55:32.923Z,99.99
2024-01-05T01:56:32.906Z,99.99
2024-01-05T01:57:32.982Z,99.99
2024-01-05T01:58:32.877Z,99.99
2024-01-05T01:59:32.869Z,99.99
2024-01-05T02:00:32.893Z,99.99
2024-01-05T02:01:32.887Z,99.99
2024-01-05T02:02:32.823Z,99.99
2024-01-05T02:03:32.914Z,99.99
2024-01-05T02:04:32.902Z,99.99
2024-01-05T02:05:32.862Z,99.99
2024-01-05T02:06:32.905Z,99.99
2024-01-05T02:07:32.765Z,99.99
2024-01-05T02:08:32.749Z,99.99
2024-01-05T02:09:32.843Z,99.99
2024-01-05T02:10:32.733Z,99.99
2024-01-05T02:11:32.708Z,99.99
2024-01-05T02:12:32.804Z,99.99
2024-01-05T02:13:32.683Z,99.99
2024-01-05T02:14:32.685Z,99.99
2024-01-05T02:15:32.719Z,99.99
2024-01-05T02:16:32.640Z,99.99
2024-01-05T02:17:32.732Z,99.99
2024-01-05T02:18:32.718Z,99.99
2024-01-05T02:19:32.706Z,99.99
2024-01-05T02:20:32.596Z,99.99
2024-01-05T02:21:32.616Z,99.99
2024-01-05T02:22:32.560Z,99.99
2024-01-05T02:23:32.558Z,99.99
2024-01-05T02:24:32.593Z,99.99
2024-01-05T02:25:32.526Z,99.99
2024-01-05T02:26:32.533Z,99.99
2024-01-05T02:27:32.518Z,99.99
2024-01-05T02:28:32.495Z,99.99
2024-01-05T02:29:32.492Z,99.99
2024-01-05T02:30:32.521Z,99.99
2024-01-05T02:31:32.546Z,99.99
2024-01-05T02:32:32.459Z,99.99
2024-01-05T02:33:32.519Z,99.99
2024-01-05T02:34:32.461Z,99.99
2024-01-05T02:35:32.401Z,99.99
2024-01-05T02:36:32.519Z,99.99
2024-01-05T02:37:32.401Z,99.99
2024-01-05T02:38:32.378Z,99.99
2024-01-05T02:39:32.468Z,99.99
2024-01-05T02:40:32.349Z,99.99
2024-01-05T02:41:32.318Z,99.99
2024-01-05T02:42:32.335Z,99.99
2024-01-05T02:43:32.304Z,99.99
2024-01-05T02:44:32.289Z,99.99
2024-01-05T02:45:32.340Z,99.99
2024-01-05T02:46:32.256Z,99.99
2024-01-05T02:47:32.250Z,99.99
2024-01-05T02:48:32.328Z,99.99
2024-01-05T02:49:32.292Z,99.99
2024-01-05T02:50:32.207Z,99.99
2024-01-05T02:51:32.211Z,99.99
2024-01-05T02:52:32.194Z,99.99
2024-01-05T02:53:32.211Z,99.99
2024-01-05T02:54:32.263Z,99.99
2024-01-05T02:55:32.139Z,99.99
2024-01-05T02:56:32.136Z,99.99
2024-01-05T02:57:32.204Z,99.99
2024-01-05T02:58:32.099Z,99.99
2024-01-05T02:59:32.095Z,99.99
2024-01-05T03:00:32.222Z,99.99
2024-01-05T03:01:32.098Z,99.99
2024-01-05T03:02:32.049Z,99.99
2024-01-05T03:03:32.097Z,99.99
2024-01-05T03:04:32.085Z,99.99
2024-01-05T03:05:32.029Z,99.99
2024-01-05T03:06:32.088Z,99.99
2024-01-05T03:07:31.993Z,99.99
2024-01-05T03:08:31.988Z,99.99
2024-01-05T03:09:32.118Z,99.99
2024-01-05T03:10:31.948Z,99.99
2024-01-05T03:11:31.943Z,99.99
2024-01-05T03:12:32.051Z,99.99
2024-01-05T03:13:31.907Z,99.99
2024-01-05T03:14:31.900Z,99.99
2024-01-05T03:15:31.894Z,99.99
2024-01-05T03:16:31.878Z,99.99
2024-01-05T03:17:31.886Z,99.99
2024-01-05T03:18:31.963Z,99.99
2024-01-05T03:19:31.944Z,99.99
2024-01-05T03:20:31.828Z,99.99
2024-01-05T03:21:31.989Z,99.99
2024-01-05T03:22:32.607Z,99.99
2024-01-05T03:23:31.783Z,99.99
2024-01-05T03:24:31.845Z,99.99
2024-01-05T03:25:31.788Z,99.99
2024-01-05T03:26:31.746Z,99.99
2024-01-05T03:27:31.793Z,99.99
2024-01-05T03:28:31.739Z,99.99
2024-01-05T03:29:31.704Z,99.99
2024-01-05T03:30:31.798Z,99.99
2024-01-05T03:31:31.731Z,99.99
2024-01-05T03:32:31.743Z,99.99
2024-01-05T03:33:31.751Z,99.99
2024-01-05T03:34:31.703Z,99.99
2024-01-05T03:35:31.630Z,99.99
2024-01-05T03:36:31.660Z,99.99
2024-01-05T03:37:31.608Z,99.99
2024-01-05T03:38:31.589Z,99.99
2024-01-05T03:39:31.595Z,99.99
2024-01-05T03:40:31.564Z,99.99
2024-01-05T03:41:31.589Z,99.99
2024-01-05T03:42:31.625Z,99.99
2024-01-05T03:43:31.525Z,99.99
2024-01-05T03:44:31.512Z,99.99
2024-01-05T03:45:31.518Z,99.99
2024-01-05T03:46:31.477Z,99.99
2024-01-05T03:47:31.516Z,99.99
2024-01-05T03:48:31.553Z,99.99
2024-01-05T03:49:31.498Z,99.99
2024-01-05T03:50:31.434Z,99.99
2024-01-05T03:51:31.500Z,99.99
2024-01-05T03:52:31.408Z,99.99
2024-01-05T03:53:31.385Z,99.99
2024-01-05T03:54:31.448Z,99.99
2024-01-05T03:55:31.375Z,99.99
2024-01-05T03:56:31.349Z,99.99
2024-01-05T03:57:31.477Z,99.99
2024-01-05T03:58:31.324Z,99.99
2024-01-05T03:59:31.318Z,99.99
2024-01-05T04:00:31.335Z,99.99
2024-01-05T04:01:31.340Z,99.99
2024-01-05T04:02:31.375Z,99.99
2024-01-05T04:03:31.383Z,99.99
2024-01-05T04:04:31.353Z,99.99
2024-01-05T04:05:31.253Z,99.99
2024-01-05T04:06:31.287Z,99.99
2024-01-05T04:07:31.208Z,99.99
2024-01-05T04:08:31.198Z,99.99
2024-01-05T04:09:31.235Z,99.99
2024-01-05T04:10:31.180Z,99.99
2024-01-05T04:11:31.176Z,99.99
2024-01-05T04:12:31.199Z,99.99
2024-01-05T04:13:31.175Z,99.99
2024-01-05T04:14:31.128Z,99.99
2024-01-05T04:15:32.266Z,99.99
2024-01-05T04:16:31.091Z,99.99
2024-01-05T04:17:31.099Z,99.99
2024-01-05T04:18:31.146Z,99.99
2024-01-05T04:19:31.198Z,99.99
2024-01-05T04:20:31.038Z,99.99
2024-01-05T04:21:31.165Z,99.99
2024-01-05T04:22:31.030Z,99.99
2024-01-05T04:23:31.008Z,99.99
2024-01-05T04:24:31.075Z,99.99
2024-01-05T04:25:30.974Z,99.99
2024-01-05T04:26:30.971Z,99.99
2024-01-05T04:27:31.099Z,99.99
2024-01-05T04:28:30.936Z,99.99
2024-01-05T04:29:30.946Z,99.99
2024-01-05T04:30:30.950Z,99.99
2024-01-05T04:31:30.924Z,99.99
2024-01-05T04:32:30.891Z,99.99
2024-01-05T04:33:30.978Z,99.99
2024-01-05T04:34:31.037Z,99.99
2024-01-05T04:35:30.844Z,99.99
2024-01-05T04:36:30.938Z,99.99
2024-01-05T04:37:30.815Z,99.99
2024-01-05T04:38:30.812Z,99.99
2024-01-05T04:39:30.822Z,99.99
2024-01-05T04:40:30.784Z,99.99
2024-01-05T04:41:30.780Z,99.99
2024-01-05T04:42:30.778Z,99.99
2024-01-05T04:43:30.743Z,99.99
2024-01-05T04:44:30.730Z,99.99
2024-01-05T04:45:30.839Z,99.99
2024-01-05T04:46:30.700Z,99.99
2024-01-05T04:47:30.692Z,99.99
2024-01-05T04:48:30.852Z,99.99
2024-01-05T04:49:30.768Z,99.99
2024-01-05T04:50:30.642Z,99.99
2024-01-05T04:51:30.712Z,99.99
2024-01-05T04:52:30.618Z,99.99
2024-01-05T04:53:30.616Z,99.99
2024-01-05T04:54:30.662Z,99.99
2024-01-05T04:55:30.606Z,99.99
2024-01-05T04:56:30.586Z,99.99
2024-01-05T04:57:30.618Z,99.99
2024-01-05T04:58:30.540Z,99.99
2024-01-05T04:59:30.549Z,99.99
2024-01-05T05:00:30.615Z,99.99
2024-01-05T05:01:30.565Z,99.99
2024-01-05T05:02:30.509Z,99.99
2024-01-05T05:03:30.625Z,99.99
2024-01-05T05:04:30.476Z,99.99
2024-01-05T05:05:30.505Z,99.99
2024-01-05T05:06:30.471Z,99.99
2024-01-05T05:07:30.431Z,99.99
2024-01-05T05:08:30.412Z,99.99
2024-01-05T05:09:30.451Z,99.99
2024-01-05T05:10:30.410Z,99.99
2024-01-05T05:11:30.374Z,99.99
2024-01-05T05:12:30.425Z,99.99
2024-01-05T05:13:30.361Z,99.99
2024-01-05T05:14:30.336Z,99.99
2024-01-05T05:15:30.349Z,99.99
2024-01-05T05:16:30.316Z,99.99
2024-01-05T05:17:30.396Z,99.99
2024-01-05T05:18:30.503Z,99.99
2024-01-05T05:19:30.351Z,99.99
2024-01-05T05:20:30.267Z,99.99
2024-01-05T05:21:30.299Z,99.99
2024-01-05T05:22:30.237Z,99.99
2024-01-05T05:23:30.221Z,99.99
2024-01-05T05:24:30.240Z,99.99
2024-01-05T05:25:30.194Z,99.99
2024-01-05T05:26:30.180Z,99.99
2024-01-05T05:27:30.285Z,99.99
2024-01-05T05:28:30.167Z,99.99
2024-01-05T05:29:30.149Z,99.99
2024-01-05T05:30:30.254Z,99.99
2024-01-05T05:31:30.174Z,99.99
2024-01-05T05:32:30.125Z,99.99
2024-01-05T05:33:30.247Z,99.99
2024-01-05T05:34:30.184Z,99.99
2024-01-05T05:35:30.068Z,99.99
2024-01-05T05:36:30.082Z,99.99
2024-01-05T05:37:30.046Z,99.99
2024-01-05T05:38:30.025Z,99.99
2024-01-05T05:39:30.036Z,99.99
2024-01-05T05:40:29.998Z,99.99
2024-01-05T05:41:29.991Z,99.99
2024-01-05T05:42:30.100Z,99.99
2024-01-05T05:43:29.969Z,99.99
2024-01-05T05:44:29.960Z,99.99
2024-01-05T05:45:29.953Z,99.99
2024-01-05T05:46:29.924Z,99.99
2024-01-05T05:47:29.964Z,99.99
2024-01-05T05:48:30.084Z,99.99
2024-01-05T05:49:30.068Z,99.99
2024-01-05T05:50:29.875Z,99.99
2024-01-05T05:51:29.985Z,99.99
2024-01-05T05:52:31.047Z,99.99
2024-01-05T05:53:29.821Z,99.99
2024-01-05T05:54:29.872Z,99.99
2024-01-05T05:55:29.822Z,99.99
2024-01-05T05:56:29.796Z,99.99
2024-01-05T05:57:29.838Z,99.99
2024-01-05T05:58:29.765Z,99.99
2024-01-05T05:59:29.748Z,99.99
2024-01-05T06:00:29.806Z,99.99
2024-01-05T06:01:29.771Z,99.99
2024-01-05T06:02:29.716Z,99.99
2024-01-05T06:03:29.753Z,99.99
2024-01-05T06:04:29.742Z,99.99
2024-01-05T06:05:29.755Z,99.99
2024-01-05T06:06:29.726Z,99.99
2024-01-05T06:07:29.684Z,99.99
2024-01-05T06:08:29.638Z,99.99
2024-01-05T06:09:29.638Z,99.99
2024-01-05T06:10:29.628Z,99.99
2024-01-05T06:11:29.606Z,99.99
2024-01-05T06:12:29.626Z,99.99
2024-01-05T06:13:29.579Z,99.99
2024-01-05T06:14:29.558Z,99.99
2024-01-05T06:15:29.626Z,99.99
2024-01-05T06:16:29.537Z,99.99
2024-01-05T06:17:29.560Z,99.99
2024-01-05T06:18:29.594Z,99.99
2024-01-05T06:19:29.701Z,99.99
2024-01-05T06:20:29.486Z,99.99
2024-01-05T06:21:29.579Z,99.99
2024-01-05T06:22:29.489Z,99.99
2024-01-05T06:23:29.448Z,99.99
2024-01-05T06:24:29.484Z,99.99
2024-01-05T06:25:29.432Z,99.99
2024-01-05T06:26:29.419Z,99.99
2024-01-05T06:27:38.279Z,99.99
2024-01-05T06:28:30.400Z,99.99
2024-01-05T06:29:29.386Z,99.99
2024-01-05T06:30:29.437Z,99.99
2024-01-05T06:31:29.437Z,99.99
2024-01-05T06:32:29.369Z,99.99
2024-01-05T06:33:29.510Z,99.99
2024-01-05T06:34:29.382Z,99.99
2024-01-05T06:35:29.279Z,99.99
2024-01-05T06:36:29.309Z,99.99
2024-01-05T06:37:29.274Z,99.99
2024-01-05T06:38:29.245Z,99.99
2024-01-05T06:39:29.301Z,99.99
2024-01-05T06:40:29.217Z,99.99
2024-01-05T06:41:29.204Z,99.99
2024-01-05T06:42:29.240Z,99.99
2024-01-05T06:43:29.184Z,99.99
2024-01-05T06:44:29.172Z,99.99
2024-01-05T06:45:29.173Z,99.99
2024-01-05T06:46:29.153Z,99.99
2024-01-05T06:47:29.213Z,99.99
2024-01-05T06:48:29.264Z,99.99
2024-01-05T06:49:29.202Z,99.99
2024-01-05T06:50:29.264Z,99.99
2024-01-05T06:51:29.072Z,99.99
2024-01-05T06:52:29.066Z,99.99
2024-01-05T06:53:29.074Z,99.99
2024-01-05T06:54:29.035Z,99.99
2024-01-05T06:55:29.010Z,99.99
2024-01-05T06:56:29.005Z,99.99
2024-01-05T06:57:29.000Z,99.99
2024-01-05T06:58:29.067Z,99.99
2024-01-05T06:59:28.971Z,99.99
2024-01-05T07:00:29.037Z,99.99
2024-01-05T07:01:28.975Z,99.99
2024-01-05T07:02:28.925Z,99.99
2024-01-05T07:03:29.006Z,99.99
2024-01-05T07:04:28.894Z,99.99
2024-01-05T07:05:28.901Z,99.99
2024-01-05T07:06:29.026Z,99.99
2024-01-05T07:07:28.859Z,99.99
2024-01-05T07:08:28.851Z,99.99
2024-01-05T07:09:28.876Z,99.99
2024-01-05T07:10:28.827Z,99.99
2024-01-05T07:11:28.814Z,99.99
2024-01-05T07:12:28.829Z,99.99
2024-01-05T07:13:28.788Z,99.99
2024-01-05T07:14:28.795Z,99.99
2024-01-05T07:15:28.791Z,99.99
2024-01-05T07:16:28.746Z,99.99
2024-01-05T07:17:28.807Z,99.99
2024-01-05T07:18:28.812Z,99.99
2024-01-05T07:19:28.799Z,99.99
2024-01-05T07:20:28.691Z,99.99
2024-01-05T07:21:28.692Z,99.99
2024-01-05T07:22:28.675Z,99.99
2024-01-05T07:23:28.651Z,99.99
2024-01-05T07:24:28.667Z,99.99
2024-01-05T07:25:28.658Z,99.99
2024-01-05T07:26:28.617Z,99.99
2024-01-05T07:27:28.645Z,99.99
2024-01-05T07:28:28.596Z,99.99
2024-01-05T07:29:28.602Z,99.99
2024-01-05T07:30:28.705Z,99.99
2024-01-05T07:31:28.650Z,99.99
2024-01-05T07:32:28.592Z,99.99
2024-01-05T07:33:28.661Z,99.99
2024-01-05T07:34:28.654Z,99.99
2024-01-05T07:35:30.794Z,99.99
2024-01-05T07:36:28.508Z,99.99
2024-01-05T07:37:28.514Z,99.99
2024-01-05T07:38:28.480Z,99.99
2024-01-05T07:39:28.488Z,99.99
2024-01-05T07:40:28.441Z,99.99
2024-01-05T07:41:28.498Z,99.99
2024-01-05T07:42:28.442Z,99.99
2024-01-05T07:43:28.400Z,99.99
2024-01-05T07:44:28.384Z,99.99
2024-01-05T07:45:28.391Z,99.99
2024-01-05T07:46:28.450Z,99.99
2024-01-05T07:47:28.424Z,99.99
2024-01-05T07:48:28.440Z,99.99
2024-01-05T07:49:28.519Z,99.99
2024-01-05T07:50:28.321Z,99.99
2024-01-05T07:51:28.390Z,99.99
2024-01-05T07:52:28.281Z,99.99
2024-01-05T07:53:28.275Z,99.99
2024-01-05T07:54:28.279Z,99.99
2024-01-05T07:55:28.236Z,99.99
2024-01-05T07:56:28.235Z,99.99
2024-01-05T07:57:28.283Z,99.99
2024-01-05T07:58:28.213Z,99.99
2024-01-05T07:59:28.195Z,99.99
2024-01-05T08:00:28.302Z,99.99
2024-01-05T08:01:28.214Z,99.99
2024-01-05T08:02:28.168Z,99.99
2024-01-05T08:03:28.365Z,99.99
2024-01-05T08:04:28.416Z,99.99
2024-01-05T08:05:28.147Z,99.99
2024-01-05T08:06:28.323Z,99.99
2024-01-05T08:07:28.095Z,99.99
2024-01-05T08:08:28.077Z,99.99
2024-01-05T08:09:28.171Z,99.99
2024-01-05T08:10:28.079Z,99.99
2024-01-05T08:11:28.049Z,99.99
2024-01-05T08:12:28.142Z,99.99
2024-01-05T08:13:28.098Z,99.99
2024-01-05T08:14:28.101Z,99.99
2024-01-05T08:15:28.145Z,99.99
2024-01-05T08:16:28.043Z,99.99
2024-01-05T08:17:28.026Z,99.99
2024-01-05T08:18:28.122Z,99.99
2024-01-05T08:19:27.997Z,99.99
2024-01-05T08:20:28.810Z,99.99
2024-01-05T08:21:28.044Z,99.99
2024-01-05T08:22:27.894Z,99.99
2024-01-05T08:23:27.898Z,99.99
2024-01-05T08:24:27.966Z,99.99
2024-01-05T08:25:27.864Z,99.99
2024-01-05T08:26:27.859Z,99.99
2024-01-05T08:27:27.925Z,99.99
2024-01-05T08:28:27.817Z,99.99
2024-01-05T08:29:27.828Z,99.99
2024-01-05T08:30:27.856Z,99.99
2024-01-05T08:31:28.109Z,99.99
2024-01-05T08:32:27.836Z,99.99
2024-01-05T08:33:28.053Z,99.99
2024-01-05T08:34:27.935Z,99.99
2024-01-05T08:35:27.730Z,99.99
2024-01-05T08:36:27.741Z,99.99
2024-01-05T08:37:27.701Z,99.99
2024-01-05T08:38:27.682Z,99.99
2024-01-05T08:39:27.701Z,99.99
2024-01-05T08:40:27.875Z,99.99
2024-01-05T08:41:27.641Z,99.99
2024-01-05T08:42:27.658Z,99.99
2024-01-05T08:43:27.667Z,99.99
2024-01-05T08:44:27.603Z,99.99
2024-01-05T08:45:27.629Z,99.99
2024-01-05T08:46:27.596Z,99.99
2024-01-05T08:47:27.606Z,99.99
2024-01-05T08:48:27.671Z,99.99
2024-01-05T08:49:27.665Z,99.99
2024-01-05T08:50:27.532Z,99.70
2024-01-05T08:51:27.558Z,99.80
2024-01-05T08:52:27.512Z,99.80
2024-01-05T08:53:27.499Z,99.91
2024-01-05T08:54:27.511Z,99.91
2024-01-05T08:55:27.475Z,99.91
2024-01-05T08:56:27.446Z,99.85
2024-01-05T08:57:27.461Z,99.80
2024-01-05T08:58:27.436Z,99.95
2024-01-05T08:59:27.423Z,99.99
2024-01-05T09:00:27.454Z,99.99
2024-01-05T09:01:27.500Z,99.99
2024-01-05T09:02:27.382Z,99.99
2024-01-05T09:03:27.522Z,99.99
2024-01-05T09:04:27.388Z,99.99
2024-01-05T09:05:27.539Z,99.99
2024-01-05T09:06:27.357Z,99.99
2024-01-05T09:07:27.321Z,99.99
2024-01-05T09:08:27.320Z,99.99
2024-01-05T09:09:27.356Z,99.99
2024-01-05T09:10:27.278Z,99.96
2024-01-05T09:11:27.280Z,99.86
2024-01-05T09:12:27.274Z,99.76
2024-01-05T09:13:27.229Z,99.55
2024-01-05T09:14:27.222Z,99.24
2024-01-05T09:15:27.208Z,99.13
2024-01-05T09:16:27.203Z,99.13
2024-01-05T09:17:27.315Z,99.24
2024-01-05T09:18:27.425Z,99.30
2024-01-05T09:19:27.205Z,99.30
2024-01-05T09:20:27.150Z,99.30
2024-01-05T09:21:27.154Z,99.40
2024-01-05T09:22:27.115Z,99.40
2024-01-05T09:23:27.106Z,99.40
2024-01-05T09:24:27.176Z,99.61
2024-01-05T09:25:27.079Z,99.71
2024-01-05T09:26:27.057Z,99.82
2024-01-05T09:27:27.091Z,99.82
2024-01-05T09:28:27.043Z,99.99
2024-01-05T09:29:27.018Z,99.99
2024-01-05T09:30:27.056Z,99.99
2024-01-05T09:31:27.254Z,99.99
2024-01-05T09:32:27.034Z,99.99
2024-01-05T09:33:27.151Z,99.99
2024-01-05T09:34:27.090Z,99.99
2024-01-05T09:35:26.948Z,99.99
2024-01-05T09:36:26.949Z,99.99
2024-01-05T09:37:26.941Z,99.99
2024-01-05T09:38:26.922Z,99.99
2024-01-05T09:39:26.926Z,99.99
2024-01-05T09:40:26.883Z,99.99
2024-01-05T09:41:26.863Z,99.99
2024-01-05T09:42:26.865Z,99.99
2024-01-05T09:43:26.878Z,99.99
2024-01-05T09:44:26.850Z,99.99
2024-01-05T09:45:26.913Z,99.99
2024-01-05T09:46:26.814Z,99.99
2024-01-05T09:47:26.826Z,99.99
2024-01-05T09:48:33.731Z,99.99
2024-01-05T09:49:28.234Z,99.99
2024-01-05T09:50:26.819Z,99.99
2024-01-05T09:51:26.745Z,99.99
2024-01-05T09:52:26.729Z,99.99
2024-01-05T09:53:26.719Z,99.99
2024-01-05T09:54:26.771Z,99.99
2024-01-05T09:55:26.734Z,99.99
2024-01-05T09:56:26.692Z,99.99
2024-01-05T09:57:26.783Z,99.99
2024-01-05T09:58:26.653Z,99.99
2024-01-05T09:59:26.637Z,99.99
2024-01-05T10:00:26.651Z,99.99
2024-01-05T10:01:26.694Z,99.99
2024-01-05T10:02:26.603Z,99.99
2024-01-05T10:03:26.782Z,99.99
2024-01-05T10:04:26.650Z,99.99
2024-01-05T10:05:26.867Z,99.99
2024-01-05T10:06:26.766Z,99.99
2024-01-05T10:07:26.540Z,99.99
2024-01-05T10:08:26.520Z,99.99
2024-01-05T10:09:26.569Z,99.99
2024-01-05T10:10:26.496Z,99.99
2024-01-05T10:11:26.501Z,99.99
2024-01-05T10:12:26.560Z,99.99
2024-01-05T10:13:26.484Z,99.99
2024-01-05T10:14:26.449Z,99.99
2024-01-05T10:15:26.540Z,99.99
2024-01-05T10:16:26.417Z,99.99
2024-01-05T10:17:26.411Z,99.99
2024-01-05T10:18:26.864Z,99.99
2024-01-05T10:19:26.472Z,99.99
2024-01-05T10:20:26.358Z,99.99
2024-01-05T10:21:26.444Z,99.99
2024-01-05T10:22:26.338Z,99.99
2024-01-05T10:23:26.326Z,99.99
2024-01-05T10:24:26.363Z,99.99
2024-01-05T10:25:26.326Z,99.99
2024-01-05T10:26:26.279Z,99.99
2024-01-05T10:27:26.320Z,99.99
2024-01-05T10:28:26.269Z,99.99
2024-01-05T10:29:26.238Z,99.99
2024-01-05T10:30:26.487Z,99.99
2024-01-05T10:31:26.263Z,99.99
2024-01-05T10:32:26.217Z,99.99
2024-01-05T10:33:26.339Z,99.99
2024-01-05T10:34:26.316Z,99.99
2024-01-05T10:35:26.201Z,99.99
2024-01-05T10:36:26.185Z,99.99
2024-01-05T10:37:26.165Z,99.99
2024-01-05T10:38:26.126Z,99.99
2024-01-05T10:39:26.152Z,99.99
2024-01-05T10:40:26.103Z,99.99
2024-01-05T10:41:26.092Z,99.99
2024-01-05T10:42:26.301Z,99.99
2024-01-05T10:43:26.058Z,99.99
2024-01-05T10:44:26.049Z,99.99
2024-01-05T10:45:26.329Z,99.99
2024-01-05T10:46:26.057Z,99.99
2024-01-05T10:47:26.069Z,99.99
2024-01-05T10:48:26.119Z,99.99
2024-01-05T10:49:26.152Z,99.99
2024-01-05T10:50:25.966Z,99.99
2024-01-05T10:51:25.999Z,99.99
2024-01-05T10:52:25.946Z,99.99
2024-01-05T10:53:26.023Z,99.99
2024-01-05T10:54:26.005Z,99.99
2024-01-05T10:55:25.931Z,99.99
2024-01-05T10:56:25.899Z,99.99
2024-01-05T10:57:26.085Z,99.99
2024-01-05T10:58:25.857Z,99.99
2024-01-05T10:59:25.849Z,99.99
2024-01-05T11:00:25.896Z,99.99
2024-01-05T11:01:25.855Z,99.99
2024-01-05T11:02:25.823Z,99.99
2024-01-05T11:03:25.882Z,99.99
2024-01-05T11:04:25.885Z,99.99
2024-01-05T11:05:25.917Z,99.99
2024-01-05T11:06:25.840Z,99.99
2024-01-05T11:07:25.898Z,99.99
2024-01-05T11:08:25.774Z,99.99
2024-01-05T11:09:25.846Z,99.99
2024-01-05T11:10:25.715Z,99.99
2024-01-05T11:11:25.696Z,99.99
2024-01-05T11:12:25.720Z,99.99
2024-01-05T11:13:25.701Z,99.99
2024-01-05T11:14:25.716Z,99.99
2024-01-05T11:15:25.860Z,99.99
2024-01-05T11:16:25.645Z,99.99
2024-01-05T11:17:25.644Z,99.99
2024-01-05T11:18:25.798Z,99.99
2024-01-05T11:19:25.707Z,99.99
2024-01-05T11:20:25.586Z,99.99
2024-01-05T11:21:25.668Z,99.99
2024-01-05T11:22:25.570Z,99.99
2024-01-05T11:23:25.538Z,99.99
2024-01-05T11:24:25.583Z,99.99
2024-01-05T11:25:25.551Z,99.99
2024-01-05T11:26:25.525Z,99.99
2024-01-05T11:27:25.608Z,99.95
2024-01-05T11:28:25.479Z,99.74
2024-01-05T11:29:25.481Z,99.64
2024-01-05T11:30:25.550Z,99.54
2024-01-05T11:31:25.585Z,99.43
2024-01-05T11:32:25.502Z,99.23
2024-01-05T11:33:32.797Z,99.13
2024-01-05T11:34:26.666Z,99.02
2024-01-05T11:35:25.389Z,98.92
2024-01-05T11:36:25.410Z,98.82
2024-01-05T11:37:25.360Z,98.77
2024-01-05T11:38:25.359Z,98.82
2024-01-05T11:39:25.390Z,98.77
2024-01-05T11:40:25.323Z,98.66
2024-01-05T11:41:25.327Z,98.35
2024-01-05T11:42:25.401Z,98.15
2024-01-05T11:43:25.285Z,98.15
2024-01-05T11:44:25.289Z,98.15
2024-01-05T11:45:25.334Z,98.05
2024-01-05T11:46:26.330Z,97.94
2024-01-05T11:47:25.273Z,97.69
2024-01-05T11:48:25.302Z,97.49
2024-01-05T11:49:25.345Z,97.38
2024-01-05T11:50:25.189Z,97.17
2024-01-05T11:51:25.276Z,97.07
2024-01-05T11:52:25.167Z,96.97
2024-01-05T11:53:25.151Z,97.07
2024-01-05T11:54:25.202Z,96.97
2024-01-05T11:55:25.145Z,96.55
2024-01-05T11:56:25.118Z,96.34
2024-01-05T11:57:25.154Z,96.09
2024-01-05T11:58:25.105Z,95.99
2024-01-05T11:59:25.082Z,95.78
2024-01-05T12:00:25.191Z,95.57
2024-01-05T12:01:25.134Z,95.17
2024-01-05T12:02:25.036Z,95.12
2024-01-05T12:03:25.134Z,94.96
2024-01-05T12:04:25.069Z,94.92
2024-01-05T12:05:25.028Z,94.81
2024-01-05T12:06:25.147Z,94.40
2024-01-05T12:07:24.992Z,94.29
2024-01-05T12:08:24.974Z,94.50
2024-01-05T12:09:24.990Z,94.92
2024-01-05T12:10:24.930Z,94.81
2024-01-05T12:11:24.937Z,94.40
2024-01-05T12:12:24.925Z,94.40
2024-01-05T12:13:24.935Z,93.84
2024-01-05T12:14:24.886Z,93.73
2024-01-05T12:15:24.945Z,94.04
2024-01-05T12:16:24.861Z,94.15
2024-01-05T12:17:24.889Z,93.94
2024-01-05T12:18:33.673Z,94.04
2024-01-05T12:19:25.938Z,93.94
2024-01-05T12:20:25.100Z,94.04
2024-01-05T12:21:24.819Z,94.15
2024-01-05T12:22:24.794Z,93.63
2024-01-05T12:23:24.780Z,93.53
2024-01-05T12:24:24.873Z,93.63
2024-01-05T12:25:24.756Z,93.94
2024-01-05T12:26:24.836Z,94.15
2024-01-05T12:27:24.741Z,94.21
2024-01-05T12:28:24.716Z,94.35
2024-01-05T12:29:24.756Z,94.10
2024-01-05T12:30:24.749Z,94.10
2024-01-05T12:31:24.824Z,94.10
2024-01-05T12:32:24.665Z,94.00
2024-01-05T12:33:24.734Z,94.00
2024-01-05T12:34:24.709Z,94.00
2024-01-05T12:35:24.628Z,94.21
2024-01-05T12:36:24.651Z,94.21
2024-01-05T12:37:24.605Z,94.31
2024-01-05T12:38:24.582Z,94.52
2024-01-05T12:39:24.596Z,94.62
2024-01-05T12:40:24.571Z,94.93
2024-01-05T12:41:24.552Z,95.24
2024-01-05T12:42:24.590Z,95.45
2024-01-05T12:43:24.535Z,95.24
2024-01-05T12:44:24.507Z,94.62
2024-01-05T12:45:24.549Z,94.72
2024-01-05T12:46:24.744Z,93.79
2024-01-05T12:47:24.476Z,93.07
2024-01-05T12:48:24.531Z,93.28
2024-01-05T12:49:25.342Z,93.59
2024-01-05T12:50:24.453Z,94.10
2024-01-05T12:51:24.680Z,93.79
2024-01-05T12:52:24.409Z,93.69